sensor_id;sensor_type;location;lat;lon;timestamp;pressure;altitude;pressure_sealevel;temperature;humidity
62710;BME280;48770;51.624;5.886;2023-08-17T00:01:48;101835.75;;;27.31;44.81
62710;BME280;48770;51.624;5.886;2023-08-17T00:04:14;101830.94;;;27.31;44.42
62710;BME280;48770;51.624;5.886;2023-08-17T00:06:40;101832.13;;;27.30;44.76
62710;BME280;48770;51.624;5.886;2023-08-17T00:09:05;101830.94;;;27.31;44.60
62710;BME280;48770;51.624;5.886;2023-08-17T00:11:32;101832.94;;;27.31;44.39
62710;BME280;48770;51.624;5.886;2023-08-17T00:13:57;101844.97;;;27.31;44.91
62710;BME280;48770;51.624;5.886;2023-08-17T00:16:22;101827.31;;;27.31;44.79
62710;BME280;48770;51.624;5.886;2023-08-17T00:18:48;101835.75;;;27.31;44.51
62710;BME280;48770;51.624;5.886;2023-08-17T00:21:14;101822.88;;;27.30;44.74
62710;BME280;48770;51.624;5.886;2023-08-17T00:23:39;101821.25;;;27.29;44.63
62710;BME280;48770;51.624;5.886;2023-08-17T00:26:04;101824.88;;;27.29;44.77
62710;BME280;48770;51.624;5.886;2023-08-17T00:28:29;101816.03;;;27.27;44.67
62710;BME280;48770;51.624;5.886;2023-08-17T00:30:55;101807.59;;;27.27;44.45
62710;BME280;48770;51.624;5.886;2023-08-17T00:33:20;101814.84;;;27.28;44.44
62710;BME280;48770;51.624;5.886;2023-08-17T00:35:45;101808.03;;;27.29;44.80
62710;BME280;48770;51.624;5.886;2023-08-17T00:38:12;101807.22;;;27.29;44.58
62710;BME280;48770;51.624;5.886;2023-08-17T00:40:37;101807.22;;;27.29;44.62
62710;BME280;48770;51.624;5.886;2023-08-17T00:43:03;101810.03;;;27.29;44.42
62710;BME280;48770;51.624;5.886;2023-08-17T00:45:30;101808.03;;;27.29;44.66
62710;BME280;48770;51.624;5.886;2023-08-17T00:47:57;101804.78;;;27.27;44.73
62710;BME280;48770;51.624;5.886;2023-08-17T00:50:24;101797.19;;;27.28;44.57
62710;BME280;48770;51.624;5.886;2023-08-17T00:52:51;101803.59;;;27.28;44.49
62710;BME280;48770;51.624;5.886;2023-08-17T00:55:18;101803.59;;;27.28;44.49
62710;BME280;48770;51.624;5.886;2023-08-17T00:57:43;101799.19;;;27.27;44.40
62710;BME280;48770;51.624;5.886;2023-08-17T01:00:10;101802.78;;;27.28;44.69
62710;BME280;48770;51.624;5.886;2023-08-17T01:02:37;101804.78;;;27.27;44.69
62710;BME280;48770;51.624;5.886;2023-08-17T01:05:03;101793.56;;;27.27;44.67
62710;BME280;48770;51.624;5.886;2023-08-17T01:07:28;101789.56;;;27.28;44.86
62710;BME280;48770;51.624;5.886;2023-08-17T01:09:54;101795.56;;;27.27;44.54
62710;BME280;48770;51.624;5.886;2023-08-17T01:12:28;101800.38;;;27.26;44.59
62710;BME280;48770;51.624;5.886;2023-08-17T01:15:08;101797.13;;;27.24;44.42
62710;BME280;48770;51.624;5.886;2023-08-17T01:17:58;101805.91;;;27.23;44.43
62710;BME280;48770;51.624;5.886;2023-08-17T01:20:26;101802.31;;;27.22;44.52
62710;BME280;48770;51.624;5.886;2023-08-17T01:22:52;101804.72;;;27.24;44.61
62710;BME280;48770;51.624;5.886;2023-08-17T01:25:22;101809.53;;;27.23;44.71
62710;BME280;48770;51.624;5.886;2023-08-17T01:27:47;101805.09;;;27.22;44.50
62710;BME280;48770;51.624;5.886;2023-08-17T01:30:14;101807.53;;;27.24;44.91
62710;BME280;48770;51.624;5.886;2023-08-17T01:32:51;101801.50;;;27.22;44.72
62710;BME280;48770;51.624;5.886;2023-08-17T01:35:26;101804.28;;;27.22;44.89
62710;BME280;48770;51.624;5.886;2023-08-17T01:37:55;101799.50;;;27.22;44.94
62710;BME280;48770;51.624;5.886;2023-08-17T01:40:21;101799.50;;;27.22;44.82
62710;BME280;48770;51.624;5.886;2023-08-17T01:42:49;101800.31;;;27.23;44.86
62710;BME280;48770;51.624;5.886;2023-08-17T01:45:16;101801.13;;;27.23;44.85
62710;BME280;48770;51.624;5.886;2023-08-17T01:47:41;101799.50;;;27.22;44.76
62710;BME280;48770;51.624;5.886;2023-08-17T01:50:07;101803.09;;;27.23;44.33
62710;BME280;48770;51.624;5.886;2023-08-17T01:52:32;101804.28;;;27.22;44.83
62710;BME280;48770;51.624;5.886;2023-08-17T01:54:57;101803.47;;;27.21;44.98
62710;BME280;48770;51.624;5.886;2023-08-17T01:57:23;101799.06;;;27.20;44.61
62710;BME280;48770;51.624;5.886;2023-08-17T01:59:48;101804.66;;;27.20;44.87
62710;BME280;48770;51.624;5.886;2023-08-17T02:02:13;101801.88;;;27.20;44.56
62710;BME280;48770;51.624;5.886;2023-08-17T02:04:40;101798.69;;;27.22;44.32
62710;BME280;48770;51.624;5.886;2023-08-17T02:07:05;101808.66;;;27.19;44.80
62710;BME280;48770;51.624;5.886;2023-08-17T02:09:30;101806.66;;;27.20;44.41
62710;BME280;48770;51.624;5.886;2023-08-17T02:11:56;101817.91;;;27.20;44.78
62710;BME280;48770;51.624;5.886;2023-08-17T02:14:21;101815.09;;;27.20;44.48
62710;BME280;48770;51.624;5.886;2023-08-17T02:16:46;101817.91;;;27.20;44.59
62710;BME280;48770;51.624;5.886;2023-08-17T02:19:11;101825.50;;;27.19;44.60
62710;BME280;48770;51.624;5.886;2023-08-17T02:21:37;101825.50;;;27.19;44.56
62710;BME280;48770;51.624;5.886;2023-08-17T02:24:02;101817.09;;;27.19;44.43
62710;BME280;48770;51.624;5.886;2023-08-17T02:26:29;101817.91;;;27.20;44.68
62710;BME280;48770;51.624;5.886;2023-08-17T02:28:55;101817.09;;;27.19;44.80
62710;BME280;48770;51.624;5.886;2023-08-17T02:31:20;101812.66;;;27.18;44.33
62710;BME280;48770;51.624;5.886;2023-08-17T02:33:45;101805.41;;;27.17;44.44
62710;BME280;48770;51.624;5.886;2023-08-17T02:36:11;101812.66;;;27.18;44.33
62710;BME280;48770;51.624;5.886;2023-08-17T02:38:36;101801.81;;;27.17;44.62
62710;BME280;48770;51.624;5.886;2023-08-17T02:41:01;101804.59;;;27.17;44.56
62710;BME280;48770;51.624;5.886;2023-08-17T02:43:27;101798.19;;;27.16;44.38
62710;BME280;48770;51.624;5.886;2023-08-17T02:45:52;101803.81;;;27.16;44.74
62710;BME280;48770;51.624;5.886;2023-08-17T02:48:18;101793.38;;;27.17;44.43
62710;BME280;48770;51.624;5.886;2023-08-17T02:50:43;101799.81;;;27.17;44.70
62710;BME280;48770;51.624;5.886;2023-08-17T02:53:09;101798.19;;;27.16;44.55
62710;BME280;48770;51.624;5.886;2023-08-17T02:55:34;101788.13;;;27.15;44.39
62710;BME280;48770;51.624;5.886;2023-08-17T02:57:59;101792.56;;;27.16;44.65
62710;BME280;48770;51.624;5.886;2023-08-17T03:00:25;101790.13;;;27.15;44.74
62710;BME280;48770;51.624;5.886;2023-08-17T03:02:50;101783.72;;;27.14;44.49
62710;BME280;48770;51.624;5.886;2023-08-17T03:05:15;101780.91;;;27.14;44.51
62710;BME280;48770;51.624;5.886;2023-08-17T03:07:40;101779.28;;;27.13;44.99
62710;BME280;48770;51.624;5.886;2023-08-17T03:10:06;101776.47;;;27.13;44.57
62710;BME280;48770;51.624;5.886;2023-08-17T03:12:31;101782.91;;;27.14;44.45
62710;BME280;48770;51.624;5.886;2023-08-17T03:14:57;101778.09;;;27.14;44.38
62710;BME280;48770;51.624;5.886;2023-08-17T03:17:22;101782.09;;;27.13;44.40
62710;BME280;48770;51.624;5.886;2023-08-17T03:19:47;101779.28;;;27.13;44.33
62710;BME280;48770;51.624;5.886;2023-08-17T03:22:13;101782.09;;;27.13;44.76
62710;BME280;48770;51.624;5.886;2023-08-17T03:24:38;101784.09;;;27.13;44.38
62710;BME280;48770;51.624;5.886;2023-08-17T03:27:03;101782.47;;;27.12;44.24
62710;BME280;48770;51.624;5.886;2023-08-17T03:29:28;101788.88;;;27.12;44.47
62710;BME280;48770;51.624;5.886;2023-08-17T03:31:54;101788.88;;;27.12;44.70
62710;BME280;48770;51.624;5.886;2023-08-17T03:34:20;101785.28;;;27.12;44.55
62710;BME280;48770;51.624;5.886;2023-08-17T03:36:45;101781.66;;;27.11;44.64
62710;BME280;48770;51.624;5.886;2023-08-17T03:39:10;101783.66;;;27.11;44.37
62710;BME280;48770;51.624;5.886;2023-08-17T03:41:35;101774.41;;;27.10;44.47
62710;BME280;48770;51.624;5.886;2023-08-17T03:44:03;101774.84;;;27.12;44.30
62710;BME280;48770;51.624;5.886;2023-08-17T03:46:30;101756.75;;;27.10;44.46
62710;BME280;48770;51.624;5.886;2023-08-17T03:48:56;101775.59;;;27.09;44.67
62710;BME280;48770;51.624;5.886;2023-08-17T03:51:21;101775.59;;;27.09;44.40
62710;BME280;48770;51.624;5.886;2023-08-17T03:53:46;101773.59;;;27.10;44.67
62710;BME280;48770;51.624;5.886;2023-08-17T03:56:12;101775.59;;;27.09;44.38
62710;BME280;48770;51.624;5.886;2023-08-17T03:58:37;101768.38;;;27.08;44.53
62710;BME280;48770;51.624;5.886;2023-08-17T04:01:02;101768.38;;;27.08;44.50
62710;BME280;48770;51.624;5.886;2023-08-17T04:03:28;101777.59;;;27.09;44.36
62710;BME280;48770;51.624;5.886;2023-08-17T04:05:53;101782.41;;;27.08;44.30
62710;BME280;48770;51.624;5.886;2023-08-17T04:08:18;101784.41;;;27.08;44.42
62710;BME280;48770;51.624;5.886;2023-08-17T04:10:44;101775.16;;;27.07;44.19
62710;BME280;48770;51.624;5.886;2023-08-17T04:13:09;101778.31;;;27.06;44.27
62710;BME280;48770;51.624;5.886;2023-08-17T04:15:35;101780.78;;;27.07;44.53
62710;BME280;48770;51.624;5.886;2023-08-17T04:18:00;101784.75;;;27.06;44.73
62710;BME280;48770;51.624;5.886;2023-08-17T04:20:25;101786.75;;;27.06;44.50
62710;BME280;48770;51.624;5.886;2023-08-17T04:22:51;101797.63;;;27.07;44.55
62710;BME280;48770;51.624;5.886;2023-08-17T04:25:16;101783.94;;;27.06;44.54
62710;BME280;48770;51.624;5.886;2023-08-17T04:27:41;101790.34;;;27.06;44.17
62710;BME280;48770;51.624;5.886;2023-08-17T04:30:07;101795.97;;;27.06;44.56
62710;BME280;48770;51.624;5.886;2023-08-17T04:32:33;101799.63;;;27.07;44.44
62710;BME280;48770;51.624;5.886;2023-08-17T04:34:58;101795.16;;;27.06;44.62
62710;BME280;48770;51.624;5.886;2023-08-17T04:37:24;101802.78;;;27.05;44.62
62710;BME280;48770;51.624;5.886;2023-08-17T04:39:49;101798.34;;;27.04;44.27
62710;BME280;48770;51.624;5.886;2023-08-17T04:42:14;101801.97;;;27.04;44.39
62710;BME280;48770;51.624;5.886;2023-08-17T04:44:40;101798.34;;;27.04;44.28
62710;BME280;48770;51.624;5.886;2023-08-17T04:47:05;101803.97;;;27.04;44.44
62710;BME280;48770;51.624;5.886;2023-08-17T04:49:31;101796.72;;;27.03;44.28
62710;BME280;48770;51.624;5.886;2023-08-17T04:51:56;101791.09;;;27.03;44.43
62710;BME280;48770;51.624;5.886;2023-08-17T04:54:22;101805.94;;;27.03;44.45
62710;BME280;48770;51.624;5.886;2023-08-17T04:56:47;101803.53;;;27.02;44.26
62710;BME280;48770;51.624;5.886;2023-08-17T04:59:12;101802.34;;;27.03;44.33
62710;BME280;48770;51.624;5.886;2023-08-17T05:01:38;101797.09;;;27.01;44.28
62710;BME280;48770;51.624;5.886;2023-08-17T05:04:04;101803.53;;;27.02;44.22
62710;BME280;48770;51.624;5.886;2023-08-17T05:06:30;101804.31;;;27.02;44.41
62710;BME280;48770;51.624;5.886;2023-08-17T05:08:56;101799.53;;;27.03;44.12
62710;BME280;48770;51.624;5.886;2023-08-17T05:11:21;101792.28;;;27.02;44.32
62710;BME280;48770;51.624;5.886;2023-08-17T05:13:46;101801.53;;;27.02;44.53
62710;BME280;48770;51.624;5.886;2023-08-17T05:16:12;101796.72;;;27.03;44.19
62710;BME280;48770;51.624;5.886;2023-08-17T05:18:37;101803.53;;;27.02;44.15
62710;BME280;48770;51.624;5.886;2023-08-17T05:21:02;101805.16;;;27.03;44.02
62710;BME280;48770;51.624;5.886;2023-08-17T05:23:27;101806.31;;;27.02;44.40
62710;BME280;48770;51.624;5.886;2023-08-17T05:25:53;101804.69;;;27.01;44.21
62710;BME280;48770;51.624;5.886;2023-08-17T05:28:18;101805.50;;;27.01;44.11
62710;BME280;48770;51.624;5.886;2023-08-17T05:30:43;101803.09;;;27.00;44.40
62710;BME280;48770;51.624;5.886;2023-08-17T05:33:09;101799.09;;;27.01;44.09
62710;BME280;48770;51.624;5.886;2023-08-17T05:35:34;101807.50;;;27.01;44.41
62710;BME280;48770;51.624;5.886;2023-08-17T05:37:59;101799.91;;;27.01;44.31
62710;BME280;48770;51.624;5.886;2023-08-17T05:40:25;101791.47;;;27.01;44.29
62710;BME280;48770;51.624;5.886;2023-08-17T05:42:50;101799.91;;;27.01;44.47
62710;BME280;48770;51.624;5.886;2023-08-17T05:45:16;101795.09;;;27.02;44.01
62710;BME280;48770;51.624;5.886;2023-08-17T05:47:41;101797.09;;;27.01;44.51
62710;BME280;48770;51.624;5.886;2023-08-17T05:50:07;101799.09;;;27.01;44.45
62710;BME280;48770;51.624;5.886;2023-08-17T05:52:32;101803.91;;;27.00;44.41
62710;BME280;48770;51.624;5.886;2023-08-17T05:54:57;101807.50;;;27.01;44.42
62710;BME280;48770;51.624;5.886;2023-08-17T05:57:23;101815.94;;;27.01;44.51
62710;BME280;48770;51.624;5.886;2023-08-17T05:59:48;101812.31;;;27.00;44.46
62710;BME280;48770;51.624;5.886;2023-08-17T06:02:14;101817.13;;;27.00;44.21
62710;BME280;48770;51.624;5.886;2023-08-17T06:04:39;101819.91;;;27.00;44.30
62710;BME280;48770;51.624;5.886;2023-08-17T06:07:04;101820.72;;;27.00;44.53
62710;BME280;48770;51.624;5.886;2023-08-17T06:09:30;101823.53;;;27.00;44.24
62710;BME280;48770;51.624;5.886;2023-08-17T06:11:56;101818.31;;;26.99;44.42
62710;BME280;48770;51.624;5.886;2023-08-17T06:14:21;101816.31;;;26.99;44.08
62710;BME280;48770;51.624;5.886;2023-08-17T06:16:47;101817.13;;;27.00;44.22
62710;BME280;48770;51.624;5.886;2023-08-17T06:19:12;101825.53;;;27.00;44.43
62710;BME280;48770;51.624;5.886;2023-08-17T06:21:38;101823.91;;;26.99;44.23
62710;BME280;48770;51.624;5.886;2023-08-17T06:24:03;101819.13;;;26.99;44.35
62710;BME280;48770;51.624;5.886;2023-08-17T06:26:29;101827.53;;;26.99;44.31
62710;BME280;48770;51.624;5.886;2023-08-17T06:28:54;101822.25;;;26.98;44.11
62710;BME280;48770;51.624;5.886;2023-08-17T06:31:20;101830.34;;;26.99;44.14
62710;BME280;48770;51.624;5.886;2023-08-17T06:33:45;101826.72;;;26.99;44.03
62710;BME280;48770;51.624;5.886;2023-08-17T06:36:10;101825.88;;;26.98;44.13
62710;BME280;48770;51.624;5.886;2023-08-17T06:38:38;101829.53;;;26.99;43.92
62710;BME280;48770;51.624;5.886;2023-08-17T06:41:03;101825.88;;;26.98;44.55
62710;BME280;48770;51.624;5.886;2023-08-17T06:43:29;101823.06;;;26.98;44.09
62710;BME280;48770;51.624;5.886;2023-08-17T06:45:54;101821.44;;;26.97;44.31
62710;BME280;48770;51.624;5.886;2023-08-17T06:48:21;101825.06;;;26.98;44.29
62710;BME280;48770;51.624;5.886;2023-08-17T06:50:46;101822.25;;;26.98;44.42
62710;BME280;48770;51.624;5.886;2023-08-17T06:53:11;101817.47;;;26.98;44.15
62710;BME280;48770;51.624;5.886;2023-08-17T06:55:37;101816.66;;;26.98;44.36
62710;BME280;48770;51.624;5.886;2023-08-17T06:58:02;101817.84;;;26.97;44.10
62710;BME280;48770;51.624;5.886;2023-08-17T07:00:27;101823.91;;;26.99;44.39
62710;BME280;48770;51.624;5.886;2023-08-17T07:02:53;101825.88;;;26.98;44.29
62710;BME280;48770;51.624;5.886;2023-08-17T07:05:18;101827.53;;;26.99;44.22
62710;BME280;48770;51.624;5.886;2023-08-17T07:07:43;101834.78;;;27.00;44.03
62710;BME280;48770;51.624;5.886;2023-08-17T07:10:10;101829.16;;;27.00;44.24
62710;BME280;48770;51.624;5.886;2023-08-17T07:12:36;101829.97;;;27.01;43.96
62710;BME280;48770;51.624;5.886;2023-08-17T07:15:02;101825.53;;;27.00;44.22
62710;BME280;48770;51.624;5.886;2023-08-17T07:17:29;101828.34;;;27.00;43.91
62710;BME280;48770;51.624;5.886;2023-08-17T07:19:54;101831.16;;;27.00;44.30
62710;BME280;48770;51.624;5.886;2023-08-17T07:22:20;101831.16;;;27.00;44.09
62710;BME280;48770;51.624;5.886;2023-08-17T07:24:45;101830.34;;;26.99;43.98
62710;BME280;48770;51.624;5.886;2023-08-17T07:27:10;101832.34;;;26.99;44.21
62710;BME280;48770;51.624;5.886;2023-08-17T07:29:36;101844.72;;;26.98;44.18
62710;BME280;48770;51.624;5.886;2023-08-17T07:32:01;101852.78;;;26.99;44.35
62710;BME280;48770;51.624;5.886;2023-08-17T07:34:27;101835.13;;;26.99;43.85
62710;BME280;48770;51.624;5.886;2023-08-17T07:36:53;101845.53;;;26.98;43.94
62710;BME280;48770;51.624;5.886;2023-08-17T07:39:18;101839.56;;;27.00;44.20
62710;BME280;48770;51.624;5.886;2023-08-17T07:41:44;101851.13;;;26.98;43.80
62710;BME280;48770;51.624;5.886;2023-08-17T07:44:09;101846.38;;;26.99;43.96
62710;BME280;48770;51.624;5.886;2023-08-17T07:46:34;101832.34;;;26.99;44.29
62710;BME280;48770;51.624;5.886;2023-08-17T07:49:00;101830.34;;;26.99;43.92
62710;BME280;48770;51.624;5.886;2023-08-17T07:51:25;101826.72;;;26.99;44.24
62710;BME280;48770;51.624;5.886;2023-08-17T07:53:50;101827.88;;;26.98;43.51
62710;BME280;48770;51.624;5.886;2023-08-17T07:56:16;101827.44;;;26.96;43.22
62710;BME280;48770;51.624;5.886;2023-08-17T07:58:41;101839.84;;;26.95;42.80
62710;BME280;48770;51.624;5.886;2023-08-17T08:01:06;101848.63;;;26.93;42.91
62710;BME280;48770;51.624;5.886;2023-08-17T08:03:32;101848.19;;;26.91;42.85
62710;BME280;48770;51.624;5.886;2023-08-17T08:05:57;101844.94;;;26.89;42.98
62710;BME280;48770;51.624;5.886;2023-08-17T08:08:23;101856.56;;;26.88;42.73
62710;BME280;48770;51.624;5.886;2023-08-17T08:10:48;101854.56;;;26.88;42.58
62710;BME280;48770;51.624;5.886;2023-08-17T08:13:13;101858.53;;;26.87;42.84
62710;BME280;48770;51.624;5.886;2023-08-17T08:15:39;101858.09;;;26.85;42.60
62710;BME280;48770;51.624;5.886;2023-08-17T08:18:04;101860.09;;;26.85;42.50
62710;BME280;48770;51.624;5.886;2023-08-17T08:20:30;101862.09;;;26.84;42.27
62710;BME280;48770;51.624;5.886;2023-08-17T08:22:55;101862.09;;;26.84;42.47
62710;BME280;48770;51.624;5.886;2023-08-17T08:25:20;101862.47;;;26.83;42.46
62710;BME280;48770;51.624;5.886;2023-08-17T08:27:46;101858.03;;;26.82;42.42
62710;BME280;48770;51.624;5.886;2023-08-17T08:30:11;101854.41;;;26.81;42.18
62710;BME280;48770;51.624;5.886;2023-08-17T08:32:36;101851.63;;;26.81;42.25
62710;BME280;48770;51.624;5.886;2023-08-17T08:35:02;101853.59;;;26.81;42.55
62710;BME280;48770;51.624;5.886;2023-08-17T08:37:28;101850.81;;;26.81;42.36
62710;BME280;48770;51.624;5.886;2023-08-17T08:39:54;101853.59;;;26.81;42.16
62710;BME280;48770;51.624;5.886;2023-08-17T08:42:21;101853.59;;;26.81;42.31
62710;BME280;48770;51.624;5.886;2023-08-17T08:44:47;101858.03;;;26.82;42.43
62710;BME280;48770;51.624;5.886;2023-08-17T08:47:13;101852.75;;;26.80;41.98
62710;BME280;48770;51.624;5.886;2023-08-17T08:49:40;101855.22;;;26.82;42.28
62710;BME280;48770;51.624;5.886;2023-08-17T08:52:12;101861.19;;;26.80;41.99
62710;BME280;48770;51.624;5.886;2023-08-17T08:54:38;101862.75;;;26.78;42.36
62710;BME280;48770;51.624;5.886;2023-08-17T08:57:12;101862.75;;;26.78;42.19
62710;BME280;48770;51.624;5.886;2023-08-17T08:59:39;101858.31;;;26.77;42.24
62710;BME280;48770;51.624;5.886;2023-08-17T09:02:12;101853.50;;;26.77;42.31
62710;BME280;48770;51.624;5.886;2023-08-17T09:04:39;101850.69;;;26.77;42.39
62710;BME280;48770;51.624;5.886;2023-08-17T09:07:06;101842.28;;;26.77;42.47
62710;BME280;48770;51.624;5.886;2023-08-17T09:09:31;101844.28;;;26.77;42.30
62710;BME280;48770;51.624;5.886;2023-08-17T09:11:57;101841.84;;;26.75;42.28
62710;BME280;48770;51.624;5.886;2023-08-17T09:14:22;101839.03;;;26.75;41.78
62710;BME280;48770;51.624;5.886;2023-08-17T09:16:48;101835.41;;;26.74;42.10
62710;BME280;48770;51.624;5.886;2023-08-17T09:19:13;101840.22;;;26.74;42.46
62710;BME280;48770;51.624;5.886;2023-08-17T09:21:39;101837.41;;;26.74;42.33
62710;BME280;48770;51.624;5.886;2023-08-17T09:24:04;101825.38;;;26.73;42.18
62710;BME280;48770;51.624;5.886;2023-08-17T09:26:32;101824.19;;;26.74;42.32
62710;BME280;48770;51.624;5.886;2023-08-17T09:28:59;101825.81;;;26.76;42.09
62710;BME280;48770;51.624;5.886;2023-08-17T09:31:24;101829.00;;;26.74;42.29
62710;BME280;48770;51.624;5.886;2023-08-17T09:33:50;101831.00;;;26.73;42.52
62710;BME280;48770;51.624;5.886;2023-08-17T09:36:20;101830.63;;;26.75;42.21
62710;BME280;48770;51.624;5.886;2023-08-17T09:38:48;101829.81;;;26.74;42.20
62710;BME280;48770;51.624;5.886;2023-08-17T09:41:14;101831.81;;;26.74;42.28
62710;BME280;48770;51.624;5.886;2023-08-17T09:43:40;101834.59;;;26.74;42.53
62710;BME280;48770;51.624;5.886;2023-08-17T09:46:06;101833.78;;;26.73;42.13
62710;BME280;48770;51.624;5.886;2023-08-17T09:48:32;101823.38;;;26.74;42.27
62710;BME280;48770;51.624;5.886;2023-08-17T09:50:58;101821.75;;;26.73;42.43
62710;BME280;48770;51.624;5.886;2023-08-17T09:53:24;101820.94;;;26.72;42.42
62710;BME280;48770;51.624;5.886;2023-08-17T09:55:50;101825.38;;;26.73;42.55
62710;BME280;48770;51.624;5.886;2023-08-17T09:58:16;101825.38;;;26.73;42.37
62710;BME280;48770;51.624;5.886;2023-08-17T10:00:47;101820.94;;;26.72;42.53
62710;BME280;48770;51.624;5.886;2023-08-17T10:03:14;101812.09;;;26.70;42.47
62710;BME280;48770;51.624;5.886;2023-08-17T10:05:40;101820.13;;;26.72;42.09
62710;BME280;48770;51.624;5.886;2023-08-17T10:08:07;101809.72;;;26.72;42.29
62710;BME280;48770;51.624;5.886;2023-08-17T10:10:36;101810.91;;;26.71;42.47
62710;BME280;48770;51.624;5.886;2023-08-17T10:13:07;101811.72;;;26.72;42.54
62710;BME280;48770;51.624;5.886;2023-08-17T10:15:45;101814.53;;;26.72;42.32
62710;BME280;48770;51.624;5.886;2023-08-17T10:18:22;101817.69;;;26.70;42.59
62710;BME280;48770;51.624;5.886;2023-08-17T10:21:01;101822.88;;;26.68;42.58
62710;BME280;48770;51.624;5.886;2023-08-17T10:23:28;101806.84;;;26.69;42.51
62710;BME280;48770;51.624;5.886;2023-08-17T10:25:54;101804.03;;;26.69;42.57
62710;BME280;48770;51.624;5.886;2023-08-17T10:28:21;101801.69;;;26.71;42.41
62710;BME280;48770;51.624;5.886;2023-08-17T10:30:47;101802.88;;;26.70;42.55
62710;BME280;48770;51.624;5.886;2023-08-17T10:33:14;101804.84;;;26.69;42.55
62710;BME280;48770;51.624;5.886;2023-08-17T10:35:41;101798.06;;;26.70;42.72
62710;BME280;48770;51.624;5.886;2023-08-17T10:38:07;101796.44;;;26.69;42.58
62710;BME280;48770;51.624;5.886;2023-08-17T10:40:37;101800.44;;;26.68;42.71
62710;BME280;48770;51.624;5.886;2023-08-17T10:43:04;101799.63;;;26.68;42.37
62710;BME280;48770;51.624;5.886;2023-08-17T10:45:31;101804.03;;;26.69;42.30
62710;BME280;48770;51.624;5.886;2023-08-17T10:50:35;101779.97;;;26.68;42.79
62710;BME280;48770;51.624;5.886;2023-08-17T10:53:08;101776.38;;;26.67;42.52
62710;BME280;48770;51.624;5.886;2023-08-17T10:55:47;101780.34;;;26.66;42.69
62710;BME280;48770;51.624;5.886;2023-08-17T10:58:17;101783.16;;;26.66;42.80
62710;BME280;48770;51.624;5.886;2023-08-17T11:00:42;101787.16;;;26.65;42.57
62710;BME280;48770;51.624;5.886;2023-08-17T11:03:14;101803.22;;;26.68;42.73
62710;BME280;48770;51.624;5.886;2023-08-17T11:05:45;101781.97;;;26.67;42.72
62710;BME280;48770;51.624;5.886;2023-08-17T11:08:27;101786.41;;;26.68;42.59
62710;BME280;48770;51.624;5.886;2023-08-17T11:11:03;101801.63;;;26.67;42.58
62710;BME280;48770;51.624;5.886;2023-08-17T11:13:34;101790.38;;;26.67;42.74
62710;BME280;48770;51.624;5.886;2023-08-17T11:16:00;101804.03;;;26.69;42.58
62710;BME280;48770;51.624;5.886;2023-08-17T11:18:26;101807.66;;;26.69;42.91
62710;BME280;48770;51.624;5.886;2023-08-17T11:20:51;101812.09;;;26.70;43.10
62710;BME280;48770;51.624;5.886;2023-08-17T11:23:17;101800.88;;;26.70;42.92
62710;BME280;48770;51.624;5.886;2023-08-17T11:25:42;101805.31;;;26.71;42.87
62710;BME280;48770;51.624;5.886;2023-08-17T11:28:08;101810.91;;;26.71;42.76
62710;BME280;48770;51.624;5.886;2023-08-17T11:30:34;101815.72;;;26.71;42.72
62710;BME280;48770;51.624;5.886;2023-08-17T11:33:02;101819.31;;;26.71;42.79
62710;BME280;48770;51.624;5.886;2023-08-17T11:35:28;101818.50;;;26.71;42.90
62710;BME280;48770;51.624;5.886;2023-08-17T11:37:53;101812.91;;;26.71;42.93
62710;BME280;48770;51.624;5.886;2023-08-17T11:40:18;101812.91;;;26.71;42.94
62710;BME280;48770;51.624;5.886;2023-08-17T11:42:44;101818.50;;;26.71;43.01
62710;BME280;48770;51.624;5.886;2023-08-17T11:45:10;101815.72;;;26.71;43.12
62710;BME280;48770;51.624;5.886;2023-08-17T11:47:37;101814.91;;;26.70;42.92
62710;BME280;48770;51.624;5.886;2023-08-17T11:50:04;101821.31;;;26.71;43.08
62710;BME280;48770;51.624;5.886;2023-08-17T11:52:30;101810.09;;;26.71;43.09
62710;BME280;48770;51.624;5.886;2023-08-17T11:54:59;101808.09;;;26.71;43.19
62710;BME280;48770;51.624;5.886;2023-08-17T11:57:25;101808.09;;;26.71;42.83
62710;BME280;48770;51.624;5.886;2023-08-17T11:59:55;101805.31;;;26.71;42.97
62710;BME280;48770;51.624;5.886;2023-08-17T12:02:24;101800.88;;;26.70;43.10
62710;BME280;48770;51.624;5.886;2023-08-17T12:04:50;101806.47;;;26.70;42.94
62710;BME280;48770;51.624;5.886;2023-08-17T12:07:16;101799.25;;;26.69;43.14
62710;BME280;48770;51.624;5.886;2023-08-17T12:09:43;101802.88;;;26.70;43.01
62710;BME280;48770;51.624;5.886;2023-08-17T12:12:10;101804.47;;;26.71;43.20
62710;BME280;48770;51.624;5.886;2023-08-17T12:14:36;101808.09;;;26.71;42.94
62710;BME280;48770;51.624;5.886;2023-08-17T12:17:02;101800.88;;;26.70;43.07
62710;BME280;48770;51.624;5.886;2023-08-17T12:19:29;101800.88;;;26.70;43.08
62710;BME280;48770;51.624;5.886;2023-08-17T12:21:54;101790.03;;;26.69;43.13
62710;BME280;48770;51.624;5.886;2023-08-17T12:24:20;101804.03;;;26.69;43.19
62710;BME280;48770;51.624;5.886;2023-08-17T12:26:48;101792.81;;;26.69;43.16
62710;BME280;48770;51.624;5.886;2023-08-17T12:29:14;101802.06;;;26.69;43.20
62710;BME280;48770;51.624;5.886;2023-08-17T12:31:40;101802.06;;;26.69;43.21
62710;BME280;48770;51.624;5.886;2023-08-17T12:34:05;101802.88;;;26.70;43.31
62710;BME280;48770;51.624;5.886;2023-08-17T12:36:32;101802.06;;;26.69;43.10
62710;BME280;48770;51.624;5.886;2023-08-17T12:38:57;101798.44;;;26.69;43.38
62710;BME280;48770;51.624;5.886;2023-08-17T12:41:23;101801.63;;;26.67;43.35
62710;BME280;48770;51.624;5.886;2023-08-17T12:43:48;101808.84;;;26.68;43.21
62710;BME280;48770;51.624;5.886;2023-08-17T12:46:14;101809.22;;;26.67;43.21
62710;BME280;48770;51.624;5.886;2023-08-17T12:48:39;101812.84;;;26.67;43.44